South Jamesport, NY (11970)

9:51 PM EDT on July 30, 2016 (GMT -0400)
Paumanok Vineyards | | Change Station

Elev 50 ft 40.95 °N, 72.60 °W | Updated 1 minute ago

Mostly Cloudy
Mostly Cloudy
73.9 °F
Feels Like 71 °F
N
0.0
Wind Variable Wind from SW
Gusts 9.0 mph

Today
High -- | Low -- °F
--% Chance of Precip.
Yesterday
High -- | Low -- °F
Precip. -- in
Pressure 30.08 in
Visibility 6.0 miles
Clouds Scattered Clouds 2700 ft
Scattered Clouds 3700 ft
Mostly Cloudy 4500 ft
Heat Index 71 °F
Dew Point 72 °F
Humidity 94%
Rainfall 0.00 in
Snow Depth Not available.
5:44 AM 8:07 PM
Waning Crescent, 9% visible
SPECI KFOK 310132Z 00000KT 6SM BR SCT027 SCT037 BKN045 23/22 A3008 RMK AO2 RAE0059 P0000 T02330222
Pressure 30.08 in
Visibility 6.0 miles
Clouds Scattered Clouds 2700 ft
Scattered Clouds 3700 ft
Mostly Cloudy 4500 ft
Heat Index 71 °F
Dew Point 72 °F
Humidity 94%
Rainfall 0.00 in
Snow Depth Not available.
5:44 AM 8:07 PM
Waning Crescent, 9% visible
SPECI KFOK 310132Z 00000KT 6SM BR SCT027 SCT037 BKN045 23/22 A3008 RMK AO2 RAE0059 P0000 T02330222

10-Day Weather Forecast

Almanac

Astronomy

Jul. 30, 2016 Rise Set
Actual Time
Civil Twilight
Nautical Twilight
Astronomical Twilight
Moon
Length of Visible Light
Length of Day
Tomorrow will be .
, % of the Moon is Illuminated

Today's Extremes

State Highs State Lows

Community

WunderPhotos

Upload Photos

1,928,702 photos uploaded!

WunderBlog® & News

Nearby

Air Quality

  Air Quality AQ Index Pollutant
Not available.

Snow Depth

Station Depth Elevation

Earthquake Activity

City Distance Mag. Time & Date
Minimum magnitude displayed is 2.5.

Coastal Water Temperatures

Place Temperature

Stations

Nearby Weather Stations

Station Location Temp. Windchill Dew Point Humidity Wind Precip. Elev Updated Type
                   

Watches & Warnings

There are currently no watches in effect.